createdAt,value
2019-03-22T00:00:51.732Z,26.90
2019-03-22T00:03:22.100Z,24.57
2019-03-22T00:05:52.387Z,25.10
2019-03-22T00:08:22.803Z,25.20
2019-03-22T00:10:53.019Z,28.63
2019-03-22T00:13:23.306Z,27.37
2019-03-22T00:15:53.694Z,26.77
2019-03-22T00:18:23.958Z,27.40
2019-03-22T00:20:54.294Z,27.20
2019-03-22T00:23:24.936Z,26.70
2019-03-22T00:25:55.234Z,25.13
2019-03-22T00:28:25.506Z,27.17
2019-03-22T00:30:59.994Z,28.40
2019-03-22T00:33:30.250Z,27.70
2019-03-22T00:36:00.535Z,26.07
2019-03-22T00:38:30.853Z,26.63
2019-03-22T00:41:05.809Z,27.00
2019-03-22T00:43:36.231Z,26.97
2019-03-22T00:46:06.536Z,25.97
2019-03-22T00:48:36.800Z,27.80
2019-03-22T00:51:07.125Z,26.87
2019-03-22T00:53:37.550Z,26.17
2019-03-22T00:56:11.451Z,25.10
2019-03-22T00:58:41.695Z,26.30
2019-03-22T01:01:12.378Z,26.73
2019-03-22T01:03:42.755Z,26.20
2019-03-22T01:06:13.020Z,25.37
2019-03-22T01:08:43.274Z,24.70
2019-03-22T01:11:26.023Z,25.27
2019-03-22T01:13:56.219Z,24.80
2019-03-22T01:16:26.378Z,24.20
2019-03-22T01:19:01.619Z,24.67
2019-03-22T01:21:31.794Z,24.60
2019-03-22T01:24:01.975Z,24.30
2019-03-22T01:26:40.279Z,23.87
2019-03-22T01:29:10.469Z,23.07
2019-03-22T01:31:40.631Z,24.77
2019-03-22T01:34:15.690Z,23.90
2019-03-22T01:36:45.931Z,25.07
2019-03-22T01:39:16.120Z,24.53
2019-03-22T01:41:46.450Z,24.40
2019-03-22T01:44:24.278Z,24.40
2019-03-22T01:46:54.530Z,23.50
2019-03-22T01:49:24.709Z,23.53
2019-03-22T01:51:54.925Z,23.90
2019-03-22T01:54:25.447Z,23.80
2019-03-22T01:56:58.123Z,23.93
2019-03-22T01:59:28.317Z,22.17
2019-03-22T02:01:58.631Z,22.83
2019-03-22T02:04:28.842Z,22.87
2019-03-22T02:06:59.064Z,24.70
2019-03-22T02:09:29.318Z,24.40
2019-03-22T02:12:02.019Z,25.20
2019-03-22T02:14:32.235Z,23.97
2019-03-22T02:17:02.519Z,23.67
2019-03-22T02:19:32.694Z,23.13
2019-03-22T02:22:02.939Z,23.53
2019-03-22T02:24:33.182Z,21.40
2019-03-22T02:27:03.806Z,23.10
2019-03-22T02:29:33.988Z,23.60
2019-03-22T02:32:04.343Z,23.43
2019-03-22T02:34:38.208Z,21.83
2019-03-22T02:37:08.503Z,23.67
2019-03-22T02:39:38.842Z,23.10
2019-03-22T02:42:14.991Z,23.57
2019-03-22T02:44:48.049Z,25.40
2019-03-22T02:47:18.356Z,24.93
2019-03-22T02:49:48.592Z,25.13
2019-03-22T02:52:18.787Z,24.57
2019-03-22T02:54:49.107Z,25.43
2019-03-22T02:57:28.255Z,27.37
2019-03-22T02:59:58.537Z,28.20
2019-03-22T03:02:28.791Z,29.57
2019-03-22T03:04:59.016Z,31.80
2019-03-22T03:07:29.300Z,30.13
2019-03-22T03:09:59.559Z,27.40
2019-03-22T03:12:32.383Z,30.07
2019-03-22T03:15:02.554Z,27.80
2019-03-22T03:17:32.747Z,28.50
2019-03-22T03:20:03.078Z,30.80
2019-03-22T03:22:33.297Z,28.10
2019-03-22T03:25:03.517Z,30.50
2019-03-22T03:27:36.216Z,28.60
2019-03-22T03:30:07.777Z,29.83
2019-03-22T03:32:37.964Z,28.97
2019-03-22T03:35:11.490Z,29.40
2019-03-22T03:37:41.681Z,29.30
2019-03-22T03:40:12.254Z,30.80
2019-03-22T03:42:42.743Z,26.23
2019-03-22T03:45:33.666Z,27.40
2019-03-22T03:48:04.987Z,28.00
2019-03-22T03:50:35.224Z,29.83
2019-03-22T03:53:06.008Z,29.87
2019-03-22T03:55:36.374Z,30.77
2019-03-22T03:58:06.856Z,29.83
2019-03-22T04:00:37.043Z,29.97
2019-03-22T04:03:07.417Z,29.50
2019-03-22T04:05:44.346Z,30.23
2019-03-22T04:08:14.648Z,30.23
2019-03-22T04:10:44.859Z,31.27
2019-03-22T04:13:15.073Z,31.53
2019-03-22T04:15:45.519Z,30.63
2019-03-22T04:18:15.754Z,29.90
2019-03-22T04:20:51.580Z,31.00
2019-03-22T04:23:21.827Z,28.97
2019-03-22T04:25:52.004Z,31.30
2019-03-22T04:28:22.252Z,32.23
2019-03-22T04:30:52.485Z,31.67
2019-03-22T04:33:22.660Z,30.63
2019-03-22T04:35:52.995Z,34.67
2019-03-22T04:38:23.195Z,31.87
2019-03-22T04:40:53.373Z,32.37
2019-03-22T04:43:23.680Z,33.77
2019-03-22T04:45:57.019Z,33.53
2019-03-22T04:48:31.261Z,32.00
2019-03-22T04:51:04.280Z,31.83
2019-03-22T04:53:47.854Z,31.60
2019-03-22T04:56:22.358Z,29.47
2019-03-22T04:58:54.638Z,27.93
2019-03-22T05:01:30.404Z,28.07
2019-03-22T05:04:00.936Z,29.47
2019-03-22T05:06:32.746Z,29.20
2019-03-22T05:09:21.165Z,27.90
2019-03-22T05:11:53.186Z,30.20
2019-03-22T05:14:24.685Z,29.10
2019-03-22T05:16:56.885Z,29.57
2019-03-22T05:19:29.891Z,28.13
2019-03-22T05:22:09.871Z,27.50
2019-03-22T05:24:42.051Z,28.60
2019-03-22T05:27:12.714Z,30.37
2019-03-22T05:29:45.263Z,29.50
2019-03-22T05:32:17.531Z,28.37
2019-03-22T05:34:47.715Z,28.30
2019-03-22T05:37:23.839Z,29.97
2019-03-22T05:39:54.030Z,27.10
2019-03-22T05:42:24.246Z,28.23
2019-03-22T05:44:54.579Z,28.17
2019-03-22T05:47:24.870Z,27.40
2019-03-22T05:49:55.051Z,27.97
2019-03-22T05:52:27.883Z,28.87
2019-03-22T05:54:58.166Z,29.70
2019-03-22T05:57:28.418Z,29.27
2019-03-22T05:59:59.139Z,29.40
2019-03-22T06:02:29.335Z,28.97
2019-03-22T06:04:59.494Z,30.83
2019-03-22T06:11:10.832Z,30.60
2019-03-22T06:13:41.238Z,32.50
2019-03-22T06:16:17.286Z,33.70
2019-03-22T06:18:50.262Z,31.40
2019-03-22T06:21:19.540Z,29.67
2019-03-22T06:23:49.994Z,31.40
2019-03-22T06:26:20.395Z,32.27
2019-03-22T06:28:50.724Z,31.10
2019-03-22T06:31:20.920Z,32.93
2019-03-22T06:33:51.201Z,33.43
2019-03-22T06:36:24.005Z,33.80
2019-03-22T06:38:56.863Z,34.60
2019-03-22T06:41:27.075Z,33.80
2019-03-22T06:43:58.838Z,34.30
2019-03-22T06:46:29.095Z,31.30
2019-03-22T06:49:01.658Z,33.00
2019-03-22T06:51:31.922Z,33.20
2019-03-22T06:54:02.133Z,33.93
2019-03-22T06:56:32.399Z,33.90
2019-03-22T06:59:07.203Z,34.17
2019-03-22T07:01:37.609Z,32.77
2019-03-22T07:04:07.887Z,33.10
2019-03-22T07:06:38.148Z,33.07
2019-03-22T07:09:13.020Z,34.67
2019-03-22T07:11:44.109Z,35.00
2019-03-22T07:14:14.292Z,36.57
2019-03-22T07:16:48.242Z,35.97
2019-03-22T07:19:18.416Z,37.70
2019-03-22T07:21:48.669Z,36.60
2019-03-22T07:24:19.291Z,39.13
2019-03-22T07:26:49.650Z,38.40
2019-03-22T07:29:19.923Z,36.60
2019-03-22T07:31:50.380Z,41.17
2019-03-22T07:34:20.637Z,39.27
2019-03-22T07:36:52.123Z,38.63
2019-03-22T07:39:27.322Z,41.37
2019-03-22T07:41:57.587Z,42.40
2019-03-22T07:44:35.111Z,44.77
2019-03-22T07:47:05.335Z,45.47
2019-03-22T07:49:35.567Z,49.60
2019-03-22T07:52:06.425Z,50.27
2019-03-22T07:54:36.618Z,47.87
2019-03-22T07:57:06.875Z,48.43
2019-03-22T07:59:37.161Z,49.80
2019-03-22T08:02:07.343Z,45.50
2019-03-22T08:04:37.630Z,45.10
2019-03-22T08:07:11.761Z,40.27
2019-03-22T08:09:42.080Z,42.67
2019-03-22T08:12:12.399Z,43.60
2019-03-22T08:14:42.803Z,41.73
2019-03-22T08:17:23.838Z,39.30
2019-03-22T08:19:54.058Z,37.97
2019-03-22T08:22:24.276Z,38.67
2019-03-22T08:24:54.498Z,37.23
2019-03-22T08:27:27.102Z,37.50
2019-03-22T08:29:57.277Z,36.97
2019-03-22T08:32:27.519Z,35.67
2019-03-22T08:34:57.919Z,35.80
2019-03-22T08:37:28.111Z,37.00
2019-03-22T08:39:58.278Z,35.67
2019-03-22T08:42:28.847Z,36.80
2019-03-22T08:44:59.049Z,38.03
2019-03-22T08:47:34.268Z,37.67
2019-03-22T08:50:01.232Z,34.70
2019-03-22T08:52:31.427Z,37.17
2019-03-22T08:55:01.666Z,38.40
2019-03-22T08:57:31.991Z,37.30
2019-03-22T09:00:03.653Z,38.53
2019-03-22T09:02:33.819Z,37.70
2019-03-22T09:05:04.199Z,36.90
2019-03-22T09:07:34.496Z,38.03
2019-03-22T09:10:17.290Z,37.03
2019-03-22T09:12:47.488Z,36.30
2019-03-22T09:15:17.766Z,37.17
2019-03-22T09:17:48.217Z,35.70
2019-03-22T09:20:27.356Z,37.20
2019-03-22T09:22:57.657Z,35.37
2019-03-22T09:25:27.850Z,36.57
2019-03-22T09:27:58.033Z,36.23
2019-03-22T09:30:28.349Z,37.77
2019-03-22T09:32:58.531Z,35.30
2019-03-22T09:35:33.843Z,36.20
2019-03-22T09:38:12.712Z,34.73
2019-03-22T09:40:35.977Z,33.13
2019-03-22T09:43:06.496Z,33.50
2019-03-22T09:45:38.030Z,33.50
2019-03-22T09:48:08.364Z,32.30
2019-03-22T09:50:38.680Z,33.00
2019-03-22T09:53:09.449Z,31.10
2019-03-22T09:55:39.718Z,30.33
2019-03-22T09:58:09.918Z,30.70
2019-03-22T10:00:40.282Z,30.30
2019-03-22T10:03:34.838Z,30.20
2019-03-22T10:06:05.172Z,30.10
2019-03-22T10:08:35.486Z,28.70
2019-03-22T10:11:05.783Z,28.57
2019-03-22T10:14:02.685Z,26.20
2019-03-22T10:16:33.043Z,24.40
2019-03-22T10:19:03.278Z,25.77
2019-03-22T10:21:33.510Z,23.17
2019-03-22T10:24:03.805Z,23.57
2019-03-22T10:26:33.992Z,23.40
2019-03-22T10:29:06.772Z,24.40
2019-03-22T10:31:37.370Z,25.10
2019-03-22T10:34:08.178Z,23.80
2019-03-22T10:36:38.472Z,23.00
2019-03-22T10:39:10.508Z,23.17
2019-03-22T10:41:40.817Z,22.20
2019-03-22T10:44:28.207Z,22.80
2019-03-22T10:46:58.466Z,21.87
2019-03-22T10:49:28.832Z,20.50
2019-03-22T10:51:59.002Z,19.50
2019-03-22T10:54:29.255Z,17.80
2019-03-22T10:56:59.541Z,18.50
2019-03-22T10:59:29.734Z,18.23
2019-03-22T11:02:03.712Z,17.50
2019-03-22T11:04:31.829Z,17.10
2019-03-22T11:07:03.509Z,17.03
2019-03-22T11:09:34.947Z,14.97
2019-03-22T11:12:12.125Z,14.90
2019-03-22T11:14:37.096Z,12.20
2019-03-22T11:17:15.162Z,13.40
2019-03-22T11:19:45.369Z,13.13
2019-03-22T11:22:15.524Z,13.23
2019-03-22T11:24:45.859Z,15.07
2019-03-22T11:27:18.478Z,14.17
2019-03-22T11:29:48.638Z,13.30
2019-03-22T11:32:18.874Z,13.40
2019-03-22T11:34:49.057Z,14.13
2019-03-22T11:37:19.353Z,11.93
2019-03-22T11:39:49.649Z,12.80
2019-03-22T11:42:20.309Z,12.03
2019-03-22T11:44:51.012Z,10.70
2019-03-22T11:47:21.501Z,12.37
2019-03-22T11:49:51.744Z,11.70
2019-03-22T11:52:21.969Z,11.20
2019-03-22T11:54:59.846Z,13.00
2019-03-22T11:57:30.059Z,11.10
2019-03-22T12:00:00.327Z,11.57
2019-03-22T12:02:30.686Z,11.27
2019-03-22T12:05:03.559Z,11.67
2019-03-22T12:07:33.706Z,9.97
2019-03-22T12:10:04.541Z,10.60
2019-03-22T12:12:34.922Z,10.00
2019-03-22T12:15:05.735Z,8.13
2019-03-22T12:17:36.066Z,7.40
2019-03-22T12:20:09.390Z,7.00
2019-03-22T12:22:39.574Z,7.43
2019-03-22T12:25:11.818Z,7.83
2019-03-22T12:27:41.992Z,7.87
2019-03-22T12:30:14.610Z,8.63
2019-03-22T12:32:48.399Z,8.53
2019-03-22T12:35:19.273Z,9.20
2019-03-22T12:37:49.486Z,7.30
2019-03-22T12:40:20.244Z,7.50
2019-03-22T12:43:11.798Z,8.70
2019-03-22T12:45:44.221Z,7.20
2019-03-22T12:48:14.395Z,8.93
2019-03-22T12:50:45.082Z,7.83
2019-03-22T12:53:15.275Z,8.37
2019-03-22T12:55:45.513Z,9.17
2019-03-22T12:58:21.650Z,7.83
2019-03-22T13:00:51.888Z,8.40
2019-03-22T13:03:24.263Z,8.13
2019-03-22T13:05:54.731Z,8.20
2019-03-22T13:08:30.756Z,7.73
2019-03-22T13:11:01.091Z,7.80
2019-03-22T13:13:31.612Z,7.17
2019-03-22T13:16:02.206Z,8.43
2019-03-22T13:18:38.830Z,8.40
2019-03-22T13:21:09.066Z,8.80
2019-03-22T13:23:39.358Z,8.97
2019-03-22T13:26:14.305Z,9.20
2019-03-22T13:28:44.667Z,8.83
2019-03-22T13:31:14.932Z,8.10
2019-03-22T13:33:45.271Z,7.00
2019-03-22T13:36:16.990Z,7.20
2019-03-22T13:38:47.217Z,6.90
2019-03-22T13:41:17.775Z,6.57
2019-03-22T13:43:48.138Z,8.00
2019-03-22T13:46:18.771Z,7.63
2019-03-22T13:48:50.459Z,8.00
2019-03-22T13:51:20.729Z,7.80
2019-03-22T13:53:50.934Z,6.53
2019-03-22T13:56:33.620Z,7.20
2019-03-22T13:59:03.910Z,6.17
2019-03-22T14:01:34.201Z,6.27
2019-03-22T14:04:04.879Z,6.10
2019-03-22T14:06:37.745Z,5.30
2019-03-22T14:09:09.525Z,4.60
2019-03-22T14:11:39.718Z,4.50
2019-03-22T14:14:10.080Z,5.13
2019-03-22T14:16:50.733Z,6.23
2019-03-22T14:19:20.967Z,5.20
2019-03-22T14:21:58.242Z,5.83
2019-03-22T14:24:28.442Z,6.70
2019-03-22T14:26:58.740Z,7.00
2019-03-22T14:29:31.979Z,6.20
2019-03-22T14:32:03.701Z,5.30
2019-03-22T14:34:33.875Z,5.90
2019-03-22T14:37:04.166Z,5.53
2019-03-22T14:39:34.799Z,5.93
2019-03-22T14:42:05.248Z,4.57
2019-03-22T14:44:36.375Z,5.27
2019-03-22T14:47:06.779Z,5.53
2019-03-22T14:49:37.225Z,4.53
2019-03-22T14:52:07.403Z,4.40
2019-03-22T14:57:48.342Z,4.60
2019-03-22T15:00:12.735Z,4.40
2019-03-22T15:02:43.494Z,5.20
2019-03-22T15:05:15.846Z,5.00
2019-03-22T15:07:46.544Z,5.50
2019-03-22T15:10:17.432Z,4.70
2019-03-22T15:12:48.547Z,5.10
2019-03-22T15:15:47.473Z,5.50
2019-03-22T15:18:32.828Z,5.13
2019-03-22T15:21:20.892Z,5.30
2019-03-22T15:24:13.950Z,6.37
2019-03-22T15:27:16.312Z,5.40
2019-03-22T15:30:00.443Z,5.07
2019-03-22T15:32:47.477Z,5.20
2019-03-22T15:35:45.354Z,5.33
2019-03-22T15:38:34.805Z,5.07
2019-03-22T15:41:05.778Z,5.50
2019-03-22T15:43:36.533Z,4.60
2019-03-22T15:46:07.742Z,5.10
2019-03-22T15:48:38.393Z,5.20
2019-03-22T15:51:09.024Z,5.27
2019-03-22T15:53:39.568Z,4.50
2019-03-22T15:56:11.005Z,5.10
2019-03-22T15:58:41.560Z,4.90
2019-03-22T16:01:12.360Z,5.70
2019-03-22T16:03:44.457Z,5.20
2019-03-22T16:06:16.194Z,5.53
2019-03-22T16:08:46.888Z,5.03
2019-03-22T16:11:17.257Z,4.80
2019-03-22T16:13:47.571Z,5.27
2019-03-22T16:16:18.831Z,6.27
2019-03-22T16:18:49.859Z,5.77
2019-03-22T16:21:22.800Z,5.47
2019-03-22T16:23:54.959Z,4.50
2019-03-22T16:26:25.255Z,5.27
2019-03-22T16:28:56.054Z,5.67
2019-03-22T16:31:28.363Z,4.80
2019-03-22T16:33:59.010Z,5.03
2019-03-22T16:36:29.608Z,4.80
2019-03-22T16:39:00.172Z,5.37
2019-03-22T16:41:30.506Z,6.03
2019-03-22T16:44:04.382Z,5.50
2019-03-22T16:46:34.828Z,5.90
2019-03-22T16:49:05.512Z,5.60
2019-03-22T16:51:35.889Z,5.40
2019-03-22T16:54:06.720Z,4.60
2019-03-22T16:56:37.681Z,5.40
2019-03-22T16:59:08.247Z,5.10
2019-03-22T17:01:39.275Z,5.57
2019-03-22T17:04:09.950Z,5.17
2019-03-22T17:06:41.976Z,5.20
2019-03-22T17:09:12.614Z,5.80
2019-03-22T17:11:43.840Z,5.47
2019-03-22T17:14:14.441Z,5.10
2019-03-22T17:16:46.249Z,5.77
2019-03-22T17:19:16.719Z,5.70
2019-03-22T17:21:47.139Z,6.00
2019-03-22T17:24:17.608Z,5.43
2019-03-22T17:26:48.677Z,5.17
2019-03-22T17:29:19.503Z,5.73
2019-03-22T17:31:50.386Z,6.00
2019-03-22T17:34:21.094Z,5.10
2019-03-22T17:36:51.474Z,5.57
2019-03-22T17:39:21.899Z,5.30
2019-03-22T17:41:52.726Z,4.83
2019-03-22T17:44:34.742Z,5.10
2019-03-22T17:47:05.862Z,5.00
2019-03-22T17:49:36.852Z,4.70
2019-03-22T17:52:07.161Z,4.33
2019-03-22T17:54:37.468Z,5.40
2019-03-22T17:57:07.913Z,5.00
2019-03-22T17:59:38.443Z,5.20
2019-03-22T18:02:08.830Z,4.43
2019-03-22T18:04:50.016Z,4.67
2019-03-22T18:07:14.107Z,5.27
2019-03-22T18:09:45.034Z,4.63
2019-03-22T18:12:15.776Z,5.00
2019-03-22T18:14:54.517Z,4.60
2019-03-22T18:17:38.942Z,5.33
2019-03-22T18:20:10.419Z,5.40
2019-03-22T18:22:40.967Z,6.30
2019-03-22T18:25:12.151Z,4.83
2019-03-22T18:27:43.141Z,5.30
2019-03-22T18:30:16.505Z,5.10
2019-03-22T18:32:47.360Z,6.00
2019-03-22T18:35:18.180Z,5.00
2019-03-22T18:37:49.175Z,6.37
2019-03-22T18:40:19.555Z,5.90
2019-03-22T18:42:52.326Z,6.10
2019-03-22T18:45:22.959Z,6.40
2019-03-22T18:47:53.667Z,7.93
2019-03-22T18:50:24.652Z,8.50
2019-03-22T18:52:55.022Z,7.30
2019-03-22T18:55:26.355Z,7.60
2019-03-22T18:57:56.855Z,7.73
2019-03-22T19:00:27.239Z,8.30
2019-03-22T19:03:04.023Z,9.53
2019-03-22T19:05:34.634Z,9.33
2019-03-22T19:08:05.051Z,10.50
2019-03-22T19:10:35.752Z,9.13
2019-03-22T19:13:07.748Z,9.60
2019-03-22T19:15:39.131Z,9.80
2019-03-22T19:18:09.722Z,10.50
2019-03-22T19:20:40.648Z,9.53
2019-03-22T19:23:11.161Z,10.10
2019-03-22T19:25:47.014Z,11.50
2019-03-22T19:28:17.615Z,10.17
2019-03-22T19:30:47.932Z,10.20
2019-03-22T19:33:46.262Z,11.50
2019-03-22T19:36:16.771Z,12.30
2019-03-22T19:39:21.818Z,12.17
2019-03-22T19:42:15.480Z,12.30
2019-03-22T19:44:46.315Z,12.57
2019-03-22T19:48:16.377Z,13.50
2019-03-22T19:50:48.329Z,13.37
2019-03-22T19:53:23.385Z,14.40
2019-03-22T19:55:54.121Z,14.50
2019-03-22T19:58:24.546Z,17.80
2019-03-22T20:00:55.183Z,16.80
2019-03-22T20:03:26.671Z,17.70
2019-03-22T20:05:57.616Z,20.90
2019-03-22T20:08:43.114Z,19.70
2019-03-22T20:11:17.354Z,18.93
2019-03-22T20:13:48.391Z,17.93
2019-03-22T20:16:19.363Z,18.70
2019-03-22T20:18:49.772Z,17.87
2019-03-22T20:21:20.390Z,17.03
2019-03-22T20:23:53.811Z,17.47
2019-03-22T20:26:29.382Z,20.03
2019-03-22T20:28:59.953Z,18.90
2019-03-22T20:31:30.425Z,18.90
2019-03-22T20:34:24.484Z,18.03
2019-03-22T20:36:55.131Z,18.23
2019-03-22T20:39:25.759Z,17.30
2019-03-22T20:41:56.414Z,17.57
2019-03-22T20:44:34.023Z,16.67
2019-03-22T20:47:02.522Z,16.17
2019-03-22T20:49:33.631Z,17.27
2019-03-22T20:52:04.113Z,17.77
2019-03-22T20:54:35.008Z,17.37
2019-03-22T20:57:05.479Z,16.30
2019-03-22T20:59:36.174Z,17.10
2019-03-22T21:02:07.139Z,16.37
2019-03-22T21:04:37.705Z,17.33
2019-03-22T21:07:09.332Z,17.83
2019-03-22T21:09:42.944Z,17.30
2019-03-22T21:12:13.471Z,15.60
2019-03-22T21:14:44.339Z,15.67
2019-03-22T21:17:16.251Z,15.20
2019-03-22T21:19:46.842Z,14.87
2019-03-22T21:22:18.251Z,14.60
2019-03-22T21:24:48.951Z,14.17
2019-03-22T21:27:19.528Z,15.17
2019-03-22T21:29:50.257Z,15.00
2019-03-22T21:32:20.881Z,15.80
2019-03-22T21:34:51.629Z,13.73
2019-03-22T21:37:23.524Z,15.10
2019-03-22T21:39:53.951Z,15.23
2019-03-22T21:42:24.272Z,15.50
2019-03-22T21:44:54.880Z,14.87
2019-03-22T21:47:25.590Z,16.03
2019-03-22T21:49:56.147Z,15.90
2019-03-22T21:52:26.779Z,15.87
2019-03-22T21:54:57.279Z,14.83
2019-03-22T21:57:27.818Z,14.27
2019-03-22T22:00:02.124Z,14.43
2019-03-22T22:02:40.417Z,14.07
2019-03-22T22:05:11.409Z,15.27
2019-03-22T22:07:41.848Z,15.47
2019-03-22T22:10:12.722Z,15.13
2019-03-22T22:12:43.491Z,14.80
2019-03-22T22:15:16.399Z,14.27
2019-03-22T22:17:46.911Z,14.00
2019-03-22T22:20:17.346Z,14.30
2019-03-22T22:22:47.744Z,14.67
2019-03-22T22:25:18.471Z,14.60
2019-03-22T22:27:49.103Z,14.90
2019-03-22T22:30:19.503Z,15.17
2019-03-22T22:32:50.039Z,15.87
2019-03-22T22:35:20.843Z,14.70
2019-03-22T22:37:51.812Z,17.23
2019-03-22T22:40:22.510Z,18.00
2019-03-22T22:42:53.099Z,18.30
2019-03-22T22:45:23.350Z,17.90
2019-03-22T22:47:54.295Z,16.10
2019-03-22T22:50:25.283Z,15.33
2019-03-22T22:52:55.771Z,17.40
2019-03-22T22:55:26.317Z,16.50
2019-03-22T22:57:56.780Z,15.00
2019-03-22T23:00:28.421Z,14.40
2019-03-22T23:02:59.640Z,14.43
2019-03-22T23:05:30.359Z,15.00
2019-03-22T23:08:01.153Z,15.10
2019-03-22T23:10:31.509Z,14.90
2019-03-22T23:13:01.906Z,15.63
2019-03-22T23:15:32.669Z,14.80
2019-03-22T23:18:03.318Z,13.90
2019-03-22T23:20:33.951Z,16.07
2019-03-22T23:23:04.490Z,13.63
2019-03-22T23:25:35.523Z,14.43
2019-03-22T23:28:06.018Z,14.30
2019-03-22T23:30:36.608Z,13.73
2019-03-22T23:33:07.561Z,16.33
2019-03-22T23:35:38.080Z,16.13
2019-03-22T23:38:08.493Z,13.53
2019-03-22T23:40:39.243Z,14.53
2019-03-22T23:43:10.209Z,13.40
2019-03-22T23:45:40.592Z,15.40
2019-03-22T23:48:11.313Z,13.67
2019-03-22T23:50:41.519Z,13.07
2019-03-22T23:53:11.917Z,13.80
2019-03-22T23:55:42.595Z,12.87
2019-03-22T23:58:13.946Z,11.67
